createdAt,value
2019-01-03T00:04:17.808Z,6.33
2019-01-03T00:07:25.863Z,5.83
2019-01-03T00:10:33.977Z,6.30
2019-01-03T00:13:35.988Z,6.33
2019-01-03T00:16:44.129Z,7.70
2019-01-03T00:19:52.177Z,8.07
2019-01-03T00:23:00.341Z,9.07
2019-01-03T00:26:08.392Z,7.93
2019-01-03T00:29:16.543Z,6.43
2019-01-03T00:32:24.762Z,6.37
2019-01-03T00:35:32.873Z,7.53
2019-01-03T00:38:40.992Z,6.97
2019-01-03T00:41:49.108Z,8.20
2019-01-03T00:44:57.188Z,8.37
2019-01-03T00:54:33.733Z,5.73
2019-01-03T00:57:41.857Z,7.50
2019-01-03T01:00:49.975Z,5.87
2019-01-03T01:03:58.023Z,5.13
2019-01-03T01:10:05.605Z,5.20
2019-01-03T01:13:13.707Z,6.20
2019-01-03T01:16:21.735Z,5.73
2019-01-03T01:19:29.771Z,5.20
2019-01-03T01:22:37.799Z,5.80
2019-01-03T01:25:45.985Z,5.77
2019-01-03T01:31:53.758Z,5.63
2019-01-03T01:35:01.890Z,6.00
2019-01-03T01:47:40.532Z,5.50
2019-01-03T01:50:48.725Z,5.97
2019-01-03T01:53:56.738Z,6.83
2019-01-03T01:57:04.948Z,6.30
2019-01-03T02:00:13.070Z,4.97
2019-01-03T02:03:21.190Z,5.40
2019-01-03T02:06:29.375Z,6.30
2019-01-03T02:09:37.399Z,5.27
2019-01-03T02:12:45.533Z,5.70
2019-01-03T02:18:54.871Z,5.57
2019-01-03T02:22:03.051Z,6.37
2019-01-03T02:28:40.051Z,5.63
2019-01-03T02:31:48.272Z,4.70
2019-01-03T02:34:56.298Z,5.53
2019-01-03T02:38:04.442Z,5.60
2019-01-03T02:41:12.509Z,5.60
2019-01-03T02:44:20.562Z,6.13
2019-01-03T02:47:28.606Z,5.07
2019-01-03T02:54:05.704Z,5.33
2019-01-03T02:57:13.827Z,6.00
2019-01-03T03:00:22.022Z,7.40
2019-01-03T03:03:30.066Z,5.67
2019-01-03T03:06:38.248Z,5.23
2019-01-03T03:15:41.890Z,6.00
2019-01-03T03:18:49.931Z,5.87
2019-01-03T03:25:27.107Z,5.37
2019-01-03T03:28:35.185Z,5.30
2019-01-03T03:31:43.310Z,5.53
2019-01-03T03:34:51.423Z,5.60
2019-01-03T03:37:59.438Z,6.53
2019-01-03T03:53:35.319Z,5.80
2019-01-03T03:59:42.947Z,5.90
2019-01-03T04:02:51.036Z,6.00
2019-01-03T04:08:58.670Z,6.20
2019-01-03T04:12:06.857Z,5.73
2019-01-03T04:14:51.600Z,5.17
2019-01-03T04:17:59.752Z,6.00
2019-01-03T04:21:07.879Z,5.30
2019-01-03T04:24:15.888Z,5.67
2019-01-03T04:27:23.942Z,5.40
2019-01-03T04:30:32.029Z,6.17
2019-01-03T04:33:40.074Z,6.20
2019-01-03T04:36:48.191Z,4.57
2019-01-03T04:39:56.211Z,5.47
2019-01-03T04:43:04.427Z,5.20
2019-01-03T04:46:12.448Z,5.33
2019-01-03T04:49:20.559Z,5.87
2019-01-03T04:58:57.145Z,5.10
2019-01-03T05:02:06.771Z,5.20
2019-01-03T05:05:14.810Z,4.73
2019-01-03T05:20:52.267Z,4.50
2019-01-03T05:26:59.796Z,4.83
2019-01-03T05:36:36.316Z,4.00
2019-01-03T05:39:44.423Z,4.20
2019-01-03T05:42:52.440Z,4.73
2019-01-03T05:46:00.554Z,4.57
2019-01-03T05:52:37.534Z,4.23
2019-01-03T05:55:45.648Z,4.50
2019-01-03T05:58:53.734Z,3.33
2019-01-03T06:05:03.919Z,4.13
2019-01-03T06:14:04.619Z,5.57
2019-01-03T06:20:12.177Z,3.97
2019-01-03T06:23:20.446Z,4.10
2019-01-03T06:26:09.362Z,3.90
2019-01-03T06:29:17.403Z,3.63
2019-01-03T07:18:31.843Z,3.80
2019-01-03T07:21:39.944Z,4.90
2019-01-03T07:24:48.062Z,3.40
2019-01-03T08:46:01.921Z,3.50
2019-01-03T08:52:12.095Z,3.30
2019-01-03T08:55:20.206Z,3.10
2019-01-03T08:58:28.331Z,2.80
2019-01-03T09:01:17.019Z,3.83
2019-01-03T09:04:25.127Z,3.20
2019-01-03T09:06:59.004Z,3.30
2019-01-03T09:09:42.310Z,3.03
2019-01-03T09:12:29.755Z,2.87
2019-01-03T09:15:00.931Z,2.77
2019-01-03T09:21:37.935Z,3.10
2019-01-03T09:24:46.049Z,2.33
2019-01-03T09:27:54.054Z,2.77
2019-01-03T09:31:02.162Z,2.60
2019-01-03T09:34:10.281Z,2.83
2019-01-03T09:37:18.319Z,3.20
2019-01-03T09:43:26.084Z,2.97
2019-01-03T09:46:14.936Z,2.60
2019-01-03T09:49:23.197Z,2.50
2019-01-03T09:52:31.486Z,1.63
2019-01-03T09:55:39.807Z,2.33
2019-01-03T09:58:28.699Z,2.57
2019-01-03T10:01:17.632Z,2.50
2019-01-03T10:04:06.550Z,2.13
2019-01-03T10:06:55.482Z,2.60
2019-01-03T10:09:44.470Z,2.60
2019-01-03T10:12:33.358Z,2.60
2019-01-03T10:15:15.930Z,2.70
2019-01-03T10:18:04.833Z,4.00
2019-01-03T10:20:53.695Z,3.80
2019-01-03T10:24:02.090Z,2.40
2019-01-03T10:26:51.008Z,3.87
2019-01-03T10:29:39.855Z,2.90
2019-01-03T10:32:28.741Z,3.37
2019-01-03T10:35:17.583Z,3.20
2019-01-03T10:38:25.859Z,3.13
2019-01-03T10:41:34.250Z,2.70
2019-01-03T10:44:23.226Z,2.77
2019-01-03T10:47:13.889Z,3.03
2019-01-03T10:50:02.810Z,3.77
2019-01-03T10:52:51.703Z,2.83
2019-01-03T10:55:40.662Z,3.47
2019-01-03T10:58:29.541Z,3.10
2019-01-03T11:01:18.515Z,2.30
2019-01-03T11:04:26.818Z,2.23
2019-01-03T11:07:15.695Z,3.17
2019-01-03T11:10:04.832Z,3.00
2019-01-03T11:12:53.674Z,3.00
2019-01-03T11:15:35.802Z,3.80
2019-01-03T11:18:24.939Z,3.60
2019-01-03T11:21:13.946Z,2.73
2019-01-03T11:24:04.470Z,3.27
2019-01-03T11:26:53.390Z,2.63
2019-01-03T11:29:42.270Z,2.97
2019-01-03T11:32:31.238Z,2.50
2019-01-03T11:35:20.167Z,1.90
2019-01-03T11:38:09.060Z,3.70
2019-01-03T11:41:17.370Z,2.43
